sensor_id;sensor_type;location;lat;lon;timestamp;P1;durP1;ratioP1;P2;durP2;ratioP2
61317;SDS011;47201;40.428;-8.436;2022-11-15T00:01:00;124.68;;;30.23;;
61317;SDS011;47201;40.428;-8.436;2022-11-15T00:03:20;108.10;;;29.25;;
61317;SDS011;47201;40.428;-8.436;2022-11-15T00:05:41;112.25;;;28.83;;
61317;SDS011;47201;40.428;-8.436;2022-11-15T00:08:01;105.63;;;28.30;;
61317;SDS011;47201;40.428;-8.436;2022-11-15T00:10:20;100.60;;;27.30;;
61317;SDS011;47201;40.428;-8.436;2022-11-15T00:12:40;106.07;;;28.50;;
61317;SDS011;47201;40.428;-8.436;2022-11-15T00:14:59;127.72;;;31.17;;
61317;SDS011;47201;40.428;-8.436;2022-11-15T00:17:19;116.88;;;29.02;;
61317;SDS011;47201;40.428;-8.436;2022-11-15T00:19:38;106.03;;;26.75;;
61317;SDS011;47201;40.428;-8.436;2022-11-15T00:21:57;107.57;;;25.67;;
61317;SDS011;47201;40.428;-8.436;2022-11-15T00:24:16;99.82;;;27.02;;
61317;SDS011;47201;40.428;-8.436;2022-11-15T00:26:36;96.15;;;26.60;;
61317;SDS011;47201;40.428;-8.436;2022-11-15T00:28:55;101.88;;;26.63;;
61317;SDS011;47201;40.428;-8.436;2022-11-15T00:31:14;106.07;;;28.13;;
61317;SDS011;47201;40.428;-8.436;2022-11-15T00:33:33;100.32;;;27.27;;
61317;SDS011;47201;40.428;-8.436;2022-11-15T00:35:53;109.93;;;26.75;;
61317;SDS011;47201;40.428;-8.436;2022-11-15T00:38:12;108.72;;;27.38;;
61317;SDS011;47201;40.428;-8.436;2022-11-15T00:40:32;111.25;;;27.33;;
61317;SDS011;47201;40.428;-8.436;2022-11-15T00:42:51;107.85;;;27.85;;
61317;SDS011;47201;40.428;-8.436;2022-11-15T00:45:10;100.80;;;27.08;;
61317;SDS011;47201;40.428;-8.436;2022-11-15T00:47:28;104.65;;;28.40;;
61317;SDS011;47201;40.428;-8.436;2022-11-15T00:49:47;113.78;;;28.10;;
61317;SDS011;47201;40.428;-8.436;2022-11-15T00:52:06;123.05;;;25.83;;
61317;SDS011;47201;40.428;-8.436;2022-11-15T00:54:26;122.97;;;27.05;;
61317;SDS011;47201;40.428;-8.436;2022-11-15T00:56:45;93.50;;;23.02;;
61317;SDS011;47201;40.428;-8.436;2022-11-15T00:59:05;75.78;;;16.23;;
61317;SDS011;47201;40.428;-8.436;2022-11-15T01:01:24;95.35;;;20.13;;
61317;SDS011;47201;40.428;-8.436;2022-11-15T01:03:43;98.10;;;22.27;;
61317;SDS011;47201;40.428;-8.436;2022-11-15T01:06:02;83.45;;;21.52;;
61317;SDS011;47201;40.428;-8.436;2022-11-15T01:08:22;91.93;;;23.08;;
61317;SDS011;47201;40.428;-8.436;2022-11-15T01:10:41;124.25;;;27.25;;
61317;SDS011;47201;40.428;-8.436;2022-11-15T01:13:00;102.57;;;24.45;;
61317;SDS011;47201;40.428;-8.436;2022-11-15T01:15:20;104.15;;;25.13;;
61317;SDS011;47201;40.428;-8.436;2022-11-15T01:17:39;114.28;;;26.65;;
61317;SDS011;47201;40.428;-8.436;2022-11-15T01:19:58;115.97;;;25.95;;
61317;SDS011;47201;40.428;-8.436;2022-11-15T01:22:17;106.72;;;25.77;;
61317;SDS011;47201;40.428;-8.436;2022-11-15T01:24:36;93.13;;;21.77;;
61317;SDS011;47201;40.428;-8.436;2022-11-15T01:26:56;56.47;;;15.68;;
61317;SDS011;47201;40.428;-8.436;2022-11-15T01:29:15;66.32;;;17.65;;
61317;SDS011;47201;40.428;-8.436;2022-11-15T01:31:34;71.93;;;18.67;;
61317;SDS011;47201;40.428;-8.436;2022-11-15T01:33:53;63.00;;;17.55;;
61317;SDS011;47201;40.428;-8.436;2022-11-15T01:36:17;38.17;;;11.15;;
61317;SDS011;47201;40.428;-8.436;2022-11-15T01:38:37;24.83;;;7.68;;
61317;SDS011;47201;40.428;-8.436;2022-11-15T01:40:57;36.10;;;11.70;;
61317;SDS011;47201;40.428;-8.436;2022-11-15T01:43:34;58.25;;;16.20;;
61317;SDS011;47201;40.428;-8.436;2022-11-15T01:45:56;35.28;;;12.80;;
61317;SDS011;47201;40.428;-8.436;2022-11-15T01:48:36;27.02;;;10.10;;
61317;SDS011;47201;40.428;-8.436;2022-11-15T01:50:55;35.08;;;10.27;;
61317;SDS011;47201;40.428;-8.436;2022-11-15T01:53:15;28.85;;;10.15;;
61317;SDS011;47201;40.428;-8.436;2022-11-15T01:55:36;22.00;;;9.47;;
61317;SDS011;47201;40.428;-8.436;2022-11-15T01:57:57;27.20;;;9.75;;
61317;SDS011;47201;40.428;-8.436;2022-11-15T02:00:20;34.63;;;12.18;;
61317;SDS011;47201;40.428;-8.436;2022-11-15T02:02:39;77.63;;;21.35;;
61317;SDS011;47201;40.428;-8.436;2022-11-15T02:04:59;71.82;;;19.55;;
61317;SDS011;47201;40.428;-8.436;2022-11-15T02:07:19;87.68;;;22.42;;
61317;SDS011;47201;40.428;-8.436;2022-11-15T02:09:40;82.15;;;20.35;;
61317;SDS011;47201;40.428;-8.436;2022-11-15T02:11:59;94.00;;;20.52;;
61317;SDS011;47201;40.428;-8.436;2022-11-15T02:14:19;104.43;;;23.15;;
61317;SDS011;47201;40.428;-8.436;2022-11-15T02:21:51;117.15;;;28.90;;
61317;SDS011;47201;40.428;-8.436;2022-11-15T02:32:18;99.65;;;26.05;;
61317;SDS011;47201;40.428;-8.436;2022-11-15T02:35:00;72.10;;;19.08;;
61317;SDS011;47201;40.428;-8.436;2022-11-15T02:37:34;34.55;;;10.38;;
61317;SDS011;47201;40.428;-8.436;2022-11-15T02:40:35;11.70;;;5.68;;
61317;SDS011;47201;40.428;-8.436;2022-11-15T02:42:57;14.68;;;4.63;;
61317;SDS011;47201;40.428;-8.436;2022-11-15T02:45:46;17.20;;;5.78;;
61317;SDS011;47201;40.428;-8.436;2022-11-15T02:48:09;25.20;;;7.53;;
61317;SDS011;47201;40.428;-8.436;2022-11-15T02:50:30;56.22;;;16.70;;
61317;SDS011;47201;40.428;-8.436;2022-11-15T03:00:34;100.80;;;28.00;;
61317;SDS011;47201;40.428;-8.436;2022-11-15T03:08:32;116.70;;;29.50;;
61317;SDS011;47201;40.428;-8.436;2022-11-15T03:11:35;72.22;;;18.23;;
61317;SDS011;47201;40.428;-8.436;2022-11-15T03:14:11;58.22;;;15.55;;
61317;SDS011;47201;40.428;-8.436;2022-11-15T03:16:41;109.13;;;23.73;;
61317;SDS011;47201;40.428;-8.436;2022-11-15T03:19:26;98.65;;;26.23;;
61317;SDS011;47201;40.428;-8.436;2022-11-15T03:22:10;46.13;;;12.20;;
61317;SDS011;47201;40.428;-8.436;2022-11-15T03:24:33;31.70;;;8.73;;
61317;SDS011;47201;40.428;-8.436;2022-11-15T03:26:56;31.73;;;10.75;;
61317;SDS011;47201;40.428;-8.436;2022-11-15T03:29:19;46.65;;;10.85;;
61317;SDS011;47201;40.428;-8.436;2022-11-15T03:31:44;48.38;;;12.45;;
61317;SDS011;47201;40.428;-8.436;2022-11-15T03:34:08;25.90;;;6.20;;
61317;SDS011;47201;40.428;-8.436;2022-11-15T03:36:33;22.25;;;6.18;;
61317;SDS011;47201;40.428;-8.436;2022-11-15T03:38:53;18.38;;;4.35;;
61317;SDS011;47201;40.428;-8.436;2022-11-15T03:41:25;17.45;;;3.80;;
61317;SDS011;47201;40.428;-8.436;2022-11-15T03:43:56;13.40;;;3.50;;
61317;SDS011;47201;40.428;-8.436;2022-11-15T03:46:25;17.73;;;3.97;;
61317;SDS011;47201;40.428;-8.436;2022-11-15T03:48:51;17.83;;;3.90;;
61317;SDS011;47201;40.428;-8.436;2022-11-15T03:51:13;15.90;;;3.65;;
61317;SDS011;47201;40.428;-8.436;2022-11-15T03:53:33;20.48;;;4.65;;
61317;SDS011;47201;40.428;-8.436;2022-11-15T03:55:52;23.48;;;5.70;;
61317;SDS011;47201;40.428;-8.436;2022-11-15T03:58:15;20.83;;;4.75;;
61317;SDS011;47201;40.428;-8.436;2022-11-15T04:00:34;15.15;;;3.40;;
61317;SDS011;47201;40.428;-8.436;2022-11-15T04:02:54;28.35;;;5.70;;
61317;SDS011;47201;40.428;-8.436;2022-11-15T04:05:16;11.40;;;2.75;;
61317;SDS011;47201;40.428;-8.436;2022-11-15T04:07:36;10.77;;;2.13;;
61317;SDS011;47201;40.428;-8.436;2022-11-15T04:09:55;12.77;;;2.55;;
61317;SDS011;47201;40.428;-8.436;2022-11-15T04:12:26;9.63;;;2.03;;
61317;SDS011;47201;40.428;-8.436;2022-11-15T04:14:51;16.52;;;2.25;;
61317;SDS011;47201;40.428;-8.436;2022-11-15T04:17:26;12.55;;;2.42;;
61317;SDS011;47201;40.428;-8.436;2022-11-15T04:19:45;16.33;;;2.78;;
61317;SDS011;47201;40.428;-8.436;2022-11-15T04:22:23;38.92;;;9.27;;
61317;SDS011;47201;40.428;-8.436;2022-11-15T04:25:02;38.58;;;7.57;;
61317;SDS011;47201;40.428;-8.436;2022-11-15T04:27:21;27.63;;;5.70;;
61317;SDS011;47201;40.428;-8.436;2022-11-15T04:29:40;27.58;;;4.50;;
61317;SDS011;47201;40.428;-8.436;2022-11-15T04:31:59;29.63;;;5.95;;
61317;SDS011;47201;40.428;-8.436;2022-11-15T04:34:19;31.67;;;7.57;;
61317;SDS011;47201;40.428;-8.436;2022-11-15T04:36:38;27.80;;;5.80;;
61317;SDS011;47201;40.428;-8.436;2022-11-15T04:39:15;22.88;;;5.88;;
61317;SDS011;47201;40.428;-8.436;2022-11-15T04:41:34;21.25;;;4.05;;
61317;SDS011;47201;40.428;-8.436;2022-11-15T04:43:55;17.60;;;5.13;;
61317;SDS011;47201;40.428;-8.436;2022-11-15T04:46:14;21.23;;;4.45;;
61317;SDS011;47201;40.428;-8.436;2022-11-15T04:48:34;17.77;;;3.45;;
61317;SDS011;47201;40.428;-8.436;2022-11-15T04:50:53;20.75;;;3.72;;
61317;SDS011;47201;40.428;-8.436;2022-11-15T04:53:15;22.17;;;5.30;;
61317;SDS011;47201;40.428;-8.436;2022-11-15T04:55:34;25.50;;;3.47;;
61317;SDS011;47201;40.428;-8.436;2022-11-15T04:58:00;10.40;;;2.50;;
61317;SDS011;47201;40.428;-8.436;2022-11-15T05:00:20;17.63;;;2.25;;
61317;SDS011;47201;40.428;-8.436;2022-11-15T05:02:39;13.82;;;2.03;;
61317;SDS011;47201;40.428;-8.436;2022-11-15T05:05:17;17.98;;;3.60;;
61317;SDS011;47201;40.428;-8.436;2022-11-15T05:07:37;13.10;;;2.30;;
61317;SDS011;47201;40.428;-8.436;2022-11-15T05:09:56;24.08;;;4.10;;
61317;SDS011;47201;40.428;-8.436;2022-11-15T05:12:15;16.15;;;3.33;;
61317;SDS011;47201;40.428;-8.436;2022-11-15T05:14:34;36.25;;;7.00;;
61317;SDS011;47201;40.428;-8.436;2022-11-15T05:16:53;39.42;;;10.32;;
61317;SDS011;47201;40.428;-8.436;2022-11-15T05:19:15;41.55;;;8.80;;
61317;SDS011;47201;40.428;-8.436;2022-11-15T05:21:35;35.35;;;5.75;;
61317;SDS011;47201;40.428;-8.436;2022-11-15T05:23:54;35.28;;;7.00;;
61317;SDS011;47201;40.428;-8.436;2022-11-15T05:26:14;23.77;;;5.13;;
61317;SDS011;47201;40.428;-8.436;2022-11-15T05:31:05;15.75;;;2.65;;
61317;SDS011;47201;40.428;-8.436;2022-11-15T05:33:24;16.48;;;2.70;;
61317;SDS011;47201;40.428;-8.436;2022-11-15T05:35:45;19.77;;;2.20;;
61317;SDS011;47201;40.428;-8.436;2022-11-15T05:38:07;16.67;;;2.38;;
61317;SDS011;47201;40.428;-8.436;2022-11-15T05:40:27;17.73;;;2.58;;
61317;SDS011;47201;40.428;-8.436;2022-11-15T05:42:48;19.52;;;2.72;;
61317;SDS011;47201;40.428;-8.436;2022-11-15T05:45:07;18.52;;;2.33;;
61317;SDS011;47201;40.428;-8.436;2022-11-15T05:47:28;14.40;;;2.30;;
61317;SDS011;47201;40.428;-8.436;2022-11-15T05:49:49;20.63;;;2.78;;
61317;SDS011;47201;40.428;-8.436;2022-11-15T05:52:11;22.95;;;2.58;;
61317;SDS011;47201;40.428;-8.436;2022-11-15T05:54:34;10.88;;;2.08;;
61317;SDS011;47201;40.428;-8.436;2022-11-15T05:56:55;15.52;;;2.72;;
61317;SDS011;47201;40.428;-8.436;2022-11-15T05:59:15;16.42;;;2.35;;
61317;SDS011;47201;40.428;-8.436;2022-11-15T06:01:35;20.88;;;2.67;;
61317;SDS011;47201;40.428;-8.436;2022-11-15T06:03:54;18.35;;;2.50;;
61317;SDS011;47201;40.428;-8.436;2022-11-15T06:06:14;23.45;;;2.78;;
61317;SDS011;47201;40.428;-8.436;2022-11-15T06:08:33;13.18;;;2.97;;
61317;SDS011;47201;40.428;-8.436;2022-11-15T06:10:52;21.65;;;3.35;;
61317;SDS011;47201;40.428;-8.436;2022-11-15T06:13:11;20.80;;;2.97;;
61317;SDS011;47201;40.428;-8.436;2022-11-15T06:15:31;26.10;;;3.30;;
61317;SDS011;47201;40.428;-8.436;2022-11-15T06:17:52;21.60;;;3.17;;
61317;SDS011;47201;40.428;-8.436;2022-11-15T06:20:15;19.02;;;2.83;;
61317;SDS011;47201;40.428;-8.436;2022-11-15T06:22:35;23.38;;;3.13;;
61317;SDS011;47201;40.428;-8.436;2022-11-15T06:24:54;24.10;;;3.65;;
61317;SDS011;47201;40.428;-8.436;2022-11-15T06:27:13;17.40;;;3.03;;
61317;SDS011;47201;40.428;-8.436;2022-11-15T06:29:32;28.10;;;3.90;;
61317;SDS011;47201;40.428;-8.436;2022-11-15T06:31:51;19.23;;;3.40;;
61317;SDS011;47201;40.428;-8.436;2022-11-15T06:34:11;19.98;;;3.47;;
61317;SDS011;47201;40.428;-8.436;2022-11-15T06:36:31;23.90;;;3.05;;
61317;SDS011;47201;40.428;-8.436;2022-11-15T06:38:53;26.13;;;3.20;;
61317;SDS011;47201;40.428;-8.436;2022-11-15T06:41:16;10.32;;;2.25;;
61317;SDS011;47201;40.428;-8.436;2022-11-15T06:43:36;23.45;;;3.42;;
61317;SDS011;47201;40.428;-8.436;2022-11-15T06:45:57;24.42;;;4.50;;
61317;SDS011;47201;40.428;-8.436;2022-11-15T06:48:17;36.40;;;4.72;;
61317;SDS011;47201;40.428;-8.436;2022-11-15T06:50:36;31.65;;;4.88;;
61317;SDS011;47201;40.428;-8.436;2022-11-15T06:52:59;31.88;;;4.72;;
61317;SDS011;47201;40.428;-8.436;2022-11-15T06:55:20;30.55;;;3.58;;
61317;SDS011;47201;40.428;-8.436;2022-11-15T06:57:46;44.38;;;3.78;;
61317;SDS011;47201;40.428;-8.436;2022-11-15T07:00:09;38.60;;;4.32;;
61317;SDS011;47201;40.428;-8.436;2022-11-15T07:02:29;37.08;;;3.78;;
61317;SDS011;47201;40.428;-8.436;2022-11-15T07:04:48;34.42;;;4.10;;
61317;SDS011;47201;40.428;-8.436;2022-11-15T07:07:08;41.33;;;4.53;;
61317;SDS011;47201;40.428;-8.436;2022-11-15T07:09:26;27.88;;;3.25;;
61317;SDS011;47201;40.428;-8.436;2022-11-15T07:11:46;22.70;;;2.92;;
61317;SDS011;47201;40.428;-8.436;2022-11-15T07:14:05;30.00;;;3.53;;
61317;SDS011;47201;40.428;-8.436;2022-11-15T07:16:24;31.17;;;3.33;;
61317;SDS011;47201;40.428;-8.436;2022-11-15T07:18:43;30.63;;;3.17;;
61317;SDS011;47201;40.428;-8.436;2022-11-15T07:21:07;45.65;;;4.70;;
61317;SDS011;47201;40.428;-8.436;2022-11-15T07:23:28;35.00;;;4.97;;
61317;SDS011;47201;40.428;-8.436;2022-11-15T07:25:47;41.67;;;3.47;;
61317;SDS011;47201;40.428;-8.436;2022-11-15T07:28:06;27.10;;;3.53;;
61317;SDS011;47201;40.428;-8.436;2022-11-15T07:30:26;32.55;;;4.13;;
61317;SDS011;47201;40.428;-8.436;2022-11-15T07:32:45;32.47;;;4.65;;
61317;SDS011;47201;40.428;-8.436;2022-11-15T07:35:05;32.95;;;3.20;;
61317;SDS011;47201;40.428;-8.436;2022-11-15T07:37:24;39.13;;;3.83;;
61317;SDS011;47201;40.428;-8.436;2022-11-15T07:39:44;39.35;;;3.70;;
61317;SDS011;47201;40.428;-8.436;2022-11-15T07:42:03;24.75;;;2.97;;
61317;SDS011;47201;40.428;-8.436;2022-11-15T07:44:41;34.83;;;3.90;;
61317;SDS011;47201;40.428;-8.436;2022-11-15T07:47:01;19.42;;;2.60;;
61317;SDS011;47201;40.428;-8.436;2022-11-15T07:49:20;38.85;;;3.53;;
61317;SDS011;47201;40.428;-8.436;2022-11-15T07:51:39;18.27;;;2.80;;
61317;SDS011;47201;40.428;-8.436;2022-11-15T07:53:58;34.88;;;3.90;;
61317;SDS011;47201;40.428;-8.436;2022-11-15T07:56:17;33.45;;;3.42;;
61317;SDS011;47201;40.428;-8.436;2022-11-15T07:58:36;19.38;;;3.03;;
61317;SDS011;47201;40.428;-8.436;2022-11-15T08:00:56;34.42;;;3.72;;
61317;SDS011;47201;40.428;-8.436;2022-11-15T08:03:15;22.98;;;3.63;;
61317;SDS011;47201;40.428;-8.436;2022-11-15T08:05:36;18.70;;;2.70;;
61317;SDS011;47201;40.428;-8.436;2022-11-15T08:07:56;31.48;;;3.72;;
61317;SDS011;47201;40.428;-8.436;2022-11-15T08:10:16;27.13;;;3.53;;
61317;SDS011;47201;40.428;-8.436;2022-11-15T08:12:37;27.58;;;3.05;;
61317;SDS011;47201;40.428;-8.436;2022-11-15T08:14:57;20.40;;;2.83;;
61317;SDS011;47201;40.428;-8.436;2022-11-15T08:17:16;12.05;;;2.35;;
61317;SDS011;47201;40.428;-8.436;2022-11-15T08:19:35;23.52;;;2.97;;
61317;SDS011;47201;40.428;-8.436;2022-11-15T08:21:55;16.75;;;2.85;;
61317;SDS011;47201;40.428;-8.436;2022-11-15T08:24:14;12.95;;;2.17;;
61317;SDS011;47201;40.428;-8.436;2022-11-15T08:26:33;13.63;;;2.38;;
61317;SDS011;47201;40.428;-8.436;2022-11-15T08:28:52;20.35;;;2.17;;
61317;SDS011;47201;40.428;-8.436;2022-11-15T08:31:13;7.90;;;1.80;;
61317;SDS011;47201;40.428;-8.436;2022-11-15T08:33:36;15.60;;;1.60;;
61317;SDS011;47201;40.428;-8.436;2022-11-15T08:35:56;6.63;;;1.60;;
61317;SDS011;47201;40.428;-8.436;2022-11-15T08:38:16;9.23;;;1.65;;
61317;SDS011;47201;40.428;-8.436;2022-11-15T08:40:36;9.55;;;1.60;;
61317;SDS011;47201;40.428;-8.436;2022-11-15T08:42:55;10.05;;;1.98;;
61317;SDS011;47201;40.428;-8.436;2022-11-15T08:45:15;9.35;;;2.15;;
61317;SDS011;47201;40.428;-8.436;2022-11-15T08:47:46;12.20;;;1.63;;
61317;SDS011;47201;40.428;-8.436;2022-11-15T08:50:06;7.35;;;1.85;;
61317;SDS011;47201;40.428;-8.436;2022-11-15T08:52:26;12.02;;;1.80;;
61317;SDS011;47201;40.428;-8.436;2022-11-15T08:54:47;7.47;;;2.15;;
61317;SDS011;47201;40.428;-8.436;2022-11-15T08:57:08;5.43;;;1.60;;
61317;SDS011;47201;40.428;-8.436;2022-11-15T08:59:33;10.35;;;2.10;;
61317;SDS011;47201;40.428;-8.436;2022-11-15T09:02:03;9.10;;;1.98;;
61317;SDS011;47201;40.428;-8.436;2022-11-15T09:04:37;8.35;;;1.85;;
61317;SDS011;47201;40.428;-8.436;2022-11-15T09:07:01;12.13;;;1.77;;
61317;SDS011;47201;40.428;-8.436;2022-11-15T09:09:31;10.13;;;1.92;;
61317;SDS011;47201;40.428;-8.436;2022-11-15T09:11:55;7.50;;;1.30;;
61317;SDS011;47201;40.428;-8.436;2022-11-15T09:14:14;8.15;;;1.83;;
61317;SDS011;47201;40.428;-8.436;2022-11-15T09:16:34;5.85;;;1.45;;
61317;SDS011;47201;40.428;-8.436;2022-11-15T09:18:53;7.70;;;1.98;;
61317;SDS011;47201;40.428;-8.436;2022-11-15T09:21:13;11.32;;;1.85;;
61317;SDS011;47201;40.428;-8.436;2022-11-15T09:23:33;6.25;;;1.52;;
61317;SDS011;47201;40.428;-8.436;2022-11-15T09:25:52;5.50;;;1.42;;
61317;SDS011;47201;40.428;-8.436;2022-11-15T09:28:16;4.13;;;1.02;;
61317;SDS011;47201;40.428;-8.436;2022-11-15T09:30:36;5.65;;;1.58;;
61317;SDS011;47201;40.428;-8.436;2022-11-15T09:32:55;6.28;;;1.33;;
61317;SDS011;47201;40.428;-8.436;2022-11-15T09:35:15;3.58;;;1.27;;
61317;SDS011;47201;40.428;-8.436;2022-11-15T09:37:35;11.43;;;1.48;;
61317;SDS011;47201;40.428;-8.436;2022-11-15T09:39:54;6.65;;;1.55;;
61317;SDS011;47201;40.428;-8.436;2022-11-15T09:50:30;6.22;;;1.10;;
61317;SDS011;47201;40.428;-8.436;2022-11-15T09:52:50;3.28;;;1.50;;
61317;SDS011;47201;40.428;-8.436;2022-11-15T09:54:51;4.70;;;1.15;;
61317;SDS011;47201;40.428;-8.436;2022-11-15T09:56:54;4.13;;;1.50;;
61317;SDS011;47201;40.428;-8.436;2022-11-15T09:59:03;5.18;;;1.10;;
61317;SDS011;47201;40.428;-8.436;2022-11-15T10:01:56;3.17;;;1.10;;
61317;SDS011;47201;40.428;-8.436;2022-11-15T10:04:04;3.88;;;1.30;;
61317;SDS011;47201;40.428;-8.436;2022-11-15T10:06:24;10.82;;;1.73;;
61317;SDS011;47201;40.428;-8.436;2022-11-15T10:10:59;3.90;;;1.42;;
61317;SDS011;47201;40.428;-8.436;2022-11-15T10:13:03;5.55;;;1.20;;
61317;SDS011;47201;40.428;-8.436;2022-11-15T10:15:13;3.95;;;0.98;;
61317;SDS011;47201;40.428;-8.436;2022-11-15T10:19:28;2.38;;;1.27;;
61317;SDS011;47201;40.428;-8.436;2022-11-15T10:21:58;6.30;;;1.20;;
61317;SDS011;47201;40.428;-8.436;2022-11-15T10:24:03;2.10;;;0.98;;
61317;SDS011;47201;40.428;-8.436;2022-11-15T10:26:13;8.95;;;1.70;;
61317;SDS011;47201;40.428;-8.436;2022-11-15T10:28:21;7.28;;;1.73;;
61317;SDS011;47201;40.428;-8.436;2022-11-15T10:30:36;7.63;;;1.17;;
61317;SDS011;47201;40.428;-8.436;2022-11-15T10:32:38;6.57;;;1.45;;
61317;SDS011;47201;40.428;-8.436;2022-11-15T10:34:42;6.72;;;1.42;;
61317;SDS011;47201;40.428;-8.436;2022-11-15T10:36:56;7.90;;;1.67;;
61317;SDS011;47201;40.428;-8.436;2022-11-15T10:39:02;5.97;;;1.30;;
61317;SDS011;47201;40.428;-8.436;2022-11-15T10:41:07;1.98;;;0.70;;
61317;SDS011;47201;40.428;-8.436;2022-11-15T10:43:15;0.30;;;0.30;;
61317;SDS011;47201;40.428;-8.436;2022-11-15T10:45:22;2.22;;;0.50;;
61317;SDS011;47201;40.428;-8.436;2022-11-15T10:47:36;1.30;;;0.50;;
61317;SDS011;47201;40.428;-8.436;2022-11-15T10:49:37;2.63;;;0.80;;
61317;SDS011;47201;40.428;-8.436;2022-11-15T10:52:01;7.65;;;1.00;;
61317;SDS011;47201;40.428;-8.436;2022-11-15T10:54:13;1.70;;;1.00;;
61317;SDS011;47201;40.428;-8.436;2022-11-15T10:56:21;1.20;;;1.10;;
61317;SDS011;47201;40.428;-8.436;2022-11-15T10:58:40;1.20;;;1.10;;
61317;SDS011;47201;40.428;-8.436;2022-11-15T11:00:43;1.80;;;1.17;;
61317;SDS011;47201;40.428;-8.436;2022-11-15T11:05:00;5.78;;;1.45;;
61317;SDS011;47201;40.428;-8.436;2022-11-15T11:07:08;7.10;;;1.42;;
61317;SDS011;47201;40.428;-8.436;2022-11-15T11:09:35;15.45;;;1.73;;
61317;SDS011;47201;40.428;-8.436;2022-11-15T11:11:46;18.33;;;2.37;;
61317;SDS011;47201;40.428;-8.436;2022-11-15T11:13:51;13.00;;;1.95;;
61317;SDS011;47201;40.428;-8.436;2022-11-15T11:15:56;24.75;;;3.35;;
61317;SDS011;47201;40.428;-8.436;2022-11-15T11:18:26;18.25;;;2.70;;
61317;SDS011;47201;40.428;-8.436;2022-11-15T11:20:40;26.10;;;2.92;;
61317;SDS011;47201;40.428;-8.436;2022-11-15T11:23:09;25.80;;;2.58;;
61317;SDS011;47201;40.428;-8.436;2022-11-15T11:25:36;19.15;;;3.10;;
61317;SDS011;47201;40.428;-8.436;2022-11-15T11:27:55;29.20;;;3.03;;
61317;SDS011;47201;40.428;-8.436;2022-11-15T11:34:53;14.13;;;2.90;;
61317;SDS011;47201;40.428;-8.436;2022-11-15T11:37:40;19.45;;;2.60;;
61317;SDS011;47201;40.428;-8.436;2022-11-15T11:47:57;17.85;;;3.10;;
61317;SDS011;47201;40.428;-8.436;2022-11-15T11:50:22;16.55;;;2.63;;
61317;SDS011;47201;40.428;-8.436;2022-11-15T11:56:43;15.40;;;3.00;;
61317;SDS011;47201;40.428;-8.436;2022-11-15T11:58:45;20.30;;;4.00;;
61317;SDS011;47201;40.428;-8.436;2022-11-15T12:00:52;12.73;;;2.47;;
61317;SDS011;47201;40.428;-8.436;2022-11-15T12:05:32;15.57;;;3.28;;
61317;SDS011;47201;40.428;-8.436;2022-11-15T12:07:37;18.33;;;2.92;;
61317;SDS011;47201;40.428;-8.436;2022-11-15T12:16:41;23.45;;;3.22;;
61317;SDS011;47201;40.428;-8.436;2022-11-15T12:18:44;14.70;;;2.40;;
61317;SDS011;47201;40.428;-8.436;2022-11-15T12:21:04;14.50;;;2.85;;
61317;SDS011;47201;40.428;-8.436;2022-11-15T12:23:28;21.80;;;3.10;;
61317;SDS011;47201;40.428;-8.436;2022-11-15T12:28:00;17.80;;;6.47;;
61317;SDS011;47201;40.428;-8.436;2022-11-15T12:30:10;19.30;;;6.25;;
61317;SDS011;47201;40.428;-8.436;2022-11-15T12:32:29;24.45;;;9.48;;
61317;SDS011;47201;40.428;-8.436;2022-11-15T12:34:40;29.40;;;11.45;;
61317;SDS011;47201;40.428;-8.436;2022-11-15T12:36:45;32.30;;;11.52;;
61317;SDS011;47201;40.428;-8.436;2022-11-15T12:38:57;24.85;;;11.05;;
61317;SDS011;47201;40.428;-8.436;2022-11-15T12:41:13;25.63;;;9.07;;
61317;SDS011;47201;40.428;-8.436;2022-11-15T12:45:31;26.25;;;8.70;;
61317;SDS011;47201;40.428;-8.436;2022-11-15T12:47:37;23.80;;;9.57;;
61317;SDS011;47201;40.428;-8.436;2022-11-15T12:53:42;18.15;;;6.10;;
61317;SDS011;47201;40.428;-8.436;2022-11-15T12:55:43;25.27;;;5.72;;
61317;SDS011;47201;40.428;-8.436;2022-11-15T12:57:43;18.75;;;4.03;;
61317;SDS011;47201;40.428;-8.436;2022-11-15T13:02:16;11.30;;;2.63;;
61317;SDS011;47201;40.428;-8.436;2022-11-15T13:04:23;11.07;;;3.47;;
61317;SDS011;47201;40.428;-8.436;2022-11-15T13:06:40;19.58;;;4.43;;
61317;SDS011;47201;40.428;-8.436;2022-11-15T13:08:51;17.23;;;4.47;;
61317;SDS011;47201;40.428;-8.436;2022-11-15T13:10:52;12.52;;;5.32;;
61317;SDS011;47201;40.428;-8.436;2022-11-15T13:12:54;16.25;;;5.65;;
61317;SDS011;47201;40.428;-8.436;2022-11-15T13:14:59;13.70;;;5.43;;
61317;SDS011;47201;40.428;-8.436;2022-11-15T13:17:01;16.30;;;5.75;;
61317;SDS011;47201;40.428;-8.436;2022-11-15T13:19:02;16.98;;;6.85;;
61317;SDS011;47201;40.428;-8.436;2022-11-15T13:21:16;20.23;;;5.50;;
61317;SDS011;47201;40.428;-8.436;2022-11-15T13:23:38;15.05;;;3.90;;
61317;SDS011;47201;40.428;-8.436;2022-11-15T13:30:31;15.85;;;3.03;;
61317;SDS011;47201;40.428;-8.436;2022-11-15T13:32:32;16.77;;;2.95;;
61317;SDS011;47201;40.428;-8.436;2022-11-15T13:34:33;14.80;;;3.25;;
61317;SDS011;47201;40.428;-8.436;2022-11-15T13:36:36;10.48;;;2.50;;
61317;SDS011;47201;40.428;-8.436;2022-11-15T13:38:38;14.27;;;2.58;;
61317;SDS011;47201;40.428;-8.436;2022-11-15T13:40:40;18.25;;;4.45;;
61317;SDS011;47201;40.428;-8.436;2022-11-15T13:42:41;13.35;;;3.10;;
61317;SDS011;47201;40.428;-8.436;2022-11-15T13:44:54;18.10;;;4.15;;
61317;SDS011;47201;40.428;-8.436;2022-11-15T13:47:00;22.38;;;4.70;;
61317;SDS011;47201;40.428;-8.436;2022-11-15T13:49:31;12.77;;;2.63;;
61317;SDS011;47201;40.428;-8.436;2022-11-15T13:51:45;7.97;;;1.65;;
61317;SDS011;47201;40.428;-8.436;2022-11-15T13:53:54;13.30;;;2.40;;
61317;SDS011;47201;40.428;-8.436;2022-11-15T13:56:04;10.70;;;2.22;;
61317;SDS011;47201;40.428;-8.436;2022-11-15T13:58:08;10.73;;;2.10;;
61317;SDS011;47201;40.428;-8.436;2022-11-15T14:02:43;11.57;;;1.92;;
61317;SDS011;47201;40.428;-8.436;2022-11-15T14:04:46;11.35;;;2.17;;
61317;SDS011;47201;40.428;-8.436;2022-11-15T14:06:53;14.18;;;2.20;;
61317;SDS011;47201;40.428;-8.436;2022-11-15T14:09:02;12.90;;;2.08;;
61317;SDS011;47201;40.428;-8.436;2022-11-15T14:11:16;13.07;;;2.00;;
61317;SDS011;47201;40.428;-8.436;2022-11-15T14:13:29;13.88;;;2.17;;
61317;SDS011;47201;40.428;-8.436;2022-11-15T14:15:33;11.30;;;1.98;;
61317;SDS011;47201;40.428;-8.436;2022-11-15T14:17:38;19.17;;;2.70;;
61317;SDS011;47201;40.428;-8.436;2022-11-15T14:19:40;14.85;;;2.13;;
61317;SDS011;47201;40.428;-8.436;2022-11-15T14:24:29;18.73;;;3.00;;
61317;SDS011;47201;40.428;-8.436;2022-11-15T14:26:32;17.38;;;2.15;;
61317;SDS011;47201;40.428;-8.436;2022-11-15T14:28:35;13.82;;;2.33;;
61317;SDS011;47201;40.428;-8.436;2022-11-15T14:30:39;16.33;;;2.90;;
61317;SDS011;47201;40.428;-8.436;2022-11-15T14:32:48;16.67;;;2.75;;
61317;SDS011;47201;40.428;-8.436;2022-11-15T14:34:54;15.18;;;2.70;;
61317;SDS011;47201;40.428;-8.436;2022-11-15T14:36:59;15.32;;;2.63;;
61317;SDS011;47201;40.428;-8.436;2022-11-15T14:39:06;16.67;;;3.03;;
61317;SDS011;47201;40.428;-8.436;2022-11-15T14:41:10;14.95;;;3.00;;
61317;SDS011;47201;40.428;-8.436;2022-11-15T14:43:23;17.13;;;2.80;;
61317;SDS011;47201;40.428;-8.436;2022-11-15T14:47:27;16.77;;;2.83;;
61317;SDS011;47201;40.428;-8.436;2022-11-15T14:49:28;13.85;;;2.67;;
61317;SDS011;47201;40.428;-8.436;2022-11-15T14:51:28;19.23;;;2.88;;
61317;SDS011;47201;40.428;-8.436;2022-11-15T14:53:30;27.77;;;3.10;;
61317;SDS011;47201;40.428;-8.436;2022-11-15T14:55:34;21.35;;;2.83;;
61317;SDS011;47201;40.428;-8.436;2022-11-15T14:57:44;21.02;;;2.80;;